createdAt,value
2019-03-24T00:01:25.843Z,8.93
2019-03-24T00:03:54.069Z,11.13
2019-03-24T00:06:22.312Z,11.10
2019-03-24T00:08:50.559Z,14.50
2019-03-24T00:11:18.803Z,10.40
2019-03-24T00:13:47.041Z,11.43
2019-03-24T00:16:15.558Z,10.80
2019-03-24T00:18:44.090Z,6.83
2019-03-24T00:21:12.394Z,8.80
2019-03-24T00:23:40.646Z,9.60
2019-03-24T00:26:08.878Z,10.57
2019-03-24T00:28:37.105Z,7.87
2019-03-24T00:31:05.502Z,9.50
2019-03-24T00:33:33.729Z,9.13
2019-03-24T00:36:01.963Z,14.10
2019-03-24T00:38:30.209Z,10.50
2019-03-24T00:40:58.457Z,10.10
2019-03-24T00:43:26.676Z,9.53
2019-03-24T00:45:54.922Z,8.77
2019-03-24T00:48:23.197Z,7.07
2019-03-24T00:50:51.439Z,12.53
2019-03-24T00:53:19.691Z,8.20
2019-03-24T00:55:47.922Z,10.30
2019-03-24T00:58:16.164Z,8.68
2019-03-24T01:00:49.380Z,8.60
2019-03-24T01:03:17.675Z,10.90
2019-03-24T01:05:45.971Z,8.63
2019-03-24T01:08:14.498Z,11.78
2019-03-24T01:10:42.721Z,14.60
2019-03-24T01:13:12.605Z,10.10
2019-03-24T01:15:47.795Z,8.47
2019-03-24T01:18:10.906Z,13.60
2019-03-24T01:20:39.182Z,10.30
2019-03-24T01:23:07.490Z,11.37
2019-03-24T01:25:35.725Z,10.23
2019-03-24T01:28:03.968Z,12.20
2019-03-24T01:30:32.494Z,11.73
2019-03-24T01:33:00.714Z,10.83
2019-03-24T01:35:28.951Z,10.17
2019-03-24T01:37:57.204Z,10.57
2019-03-24T01:40:25.430Z,9.50
2019-03-24T01:42:53.683Z,9.50
2019-03-24T01:45:21.987Z,10.55
2019-03-24T01:47:51.571Z,11.97
2019-03-24T01:50:19.809Z,10.17
2019-03-24T01:52:48.530Z,9.03
2019-03-24T01:55:16.771Z,13.20
2019-03-24T01:57:45.022Z,11.53
2019-03-24T02:00:13.266Z,12.97
2019-03-24T02:02:41.513Z,11.43
2019-03-24T02:05:09.827Z,15.60
2019-03-24T02:07:38.164Z,11.33
2019-03-24T02:10:09.122Z,10.77
2019-03-24T02:12:37.359Z,15.10
2019-03-24T02:15:08.730Z,11.17
2019-03-24T02:17:37.231Z,6.90
2019-03-24T02:20:06.098Z,12.03
2019-03-24T02:22:34.609Z,11.03
2019-03-24T02:25:02.833Z,13.70
2019-03-24T02:27:32.190Z,10.63
2019-03-24T02:30:00.688Z,11.00
2019-03-24T02:32:29.045Z,9.50
2019-03-24T02:34:57.290Z,12.40
2019-03-24T02:37:25.543Z,9.53
2019-03-24T02:39:53.776Z,8.60
2019-03-24T02:42:21.996Z,8.17
2019-03-24T02:44:50.298Z,13.17
2019-03-24T02:47:18.533Z,8.53
2019-03-24T02:49:46.838Z,11.60
2019-03-24T02:52:15.102Z,9.83
2019-03-24T02:54:43.390Z,15.17
2019-03-24T02:57:11.639Z,12.20
2019-03-24T02:59:39.883Z,13.83
2019-03-24T03:02:08.114Z,7.73
2019-03-24T03:04:36.369Z,11.90
2019-03-24T03:07:04.770Z,9.67
2019-03-24T03:09:33.098Z,12.23
2019-03-24T03:12:01.326Z,11.43
2019-03-24T03:14:29.609Z,10.28
2019-03-24T03:16:57.911Z,11.40
2019-03-24T03:19:26.248Z,13.93
2019-03-24T03:21:54.505Z,11.43
2019-03-24T03:24:22.738Z,12.33
2019-03-24T03:26:53.365Z,11.77
2019-03-24T03:29:21.709Z,7.97
2019-03-24T03:31:49.939Z,8.50
2019-03-24T03:34:18.174Z,14.60
2019-03-24T03:36:46.415Z,7.90
2019-03-24T03:39:14.707Z,10.77
2019-03-24T03:41:42.932Z,13.07
2019-03-24T03:44:11.214Z,11.40
2019-03-24T03:46:51.837Z,11.10
2019-03-24T03:49:09.775Z,12.87
2019-03-24T03:51:38.023Z,12.47
2019-03-24T03:54:06.577Z,9.50
2019-03-24T03:56:34.807Z,15.23
2019-03-24T03:59:04.677Z,10.93
2019-03-24T04:01:32.915Z,10.33
2019-03-24T04:04:01.148Z,10.93
2019-03-24T04:06:31.107Z,8.53
2019-03-24T04:08:59.342Z,11.57
2019-03-24T04:11:27.570Z,16.37
2019-03-24T04:13:57.910Z,12.33
2019-03-24T04:16:45.645Z,9.53
2019-03-24T04:19:13.887Z,14.98
2019-03-24T04:21:42.126Z,9.33
2019-03-24T04:24:11.510Z,17.63
2019-03-24T04:26:40.051Z,13.23
2019-03-24T04:29:08.282Z,13.87
2019-03-24T04:31:38.152Z,11.93
2019-03-24T04:34:06.397Z,14.87
2019-03-24T04:36:35.886Z,16.33
2019-03-24T04:39:05.784Z,11.05
2019-03-24T04:41:34.030Z,9.80
2019-03-24T04:44:02.267Z,10.67
2019-03-24T04:46:30.498Z,14.57
2019-03-24T04:48:58.745Z,8.30
2019-03-24T04:51:26.987Z,12.67
2019-03-24T04:53:55.235Z,7.83
2019-03-24T04:56:23.504Z,8.55
2019-03-24T04:58:51.752Z,9.37
2019-03-24T05:01:19.998Z,12.73
2019-03-24T05:03:48.326Z,10.43
2019-03-24T05:06:16.559Z,12.80
2019-03-24T05:08:45.638Z,12.20
2019-03-24T05:11:13.975Z,10.27
2019-03-24T05:13:42.198Z,11.80
2019-03-24T05:16:10.422Z,12.10
2019-03-24T05:18:38.677Z,12.27
2019-03-24T05:21:06.924Z,16.57
2019-03-24T05:23:35.162Z,10.87
2019-03-24T05:26:03.641Z,10.10
2019-03-24T05:28:31.907Z,7.40
2019-03-24T05:31:00.137Z,14.18
2019-03-24T05:33:28.386Z,9.83
2019-03-24T05:35:56.636Z,8.77
2019-03-24T05:38:24.866Z,10.50
2019-03-24T05:40:53.448Z,8.67
2019-03-24T05:43:21.685Z,11.88
2019-03-24T05:45:49.917Z,12.80
2019-03-24T05:48:18.169Z,7.40
2019-03-24T05:50:46.406Z,8.90
2019-03-24T05:53:14.647Z,7.67
2019-03-24T05:55:42.968Z,13.37
2019-03-24T05:58:11.229Z,12.65
2019-03-24T06:00:39.497Z,9.97
2019-03-24T06:03:08.353Z,11.03
2019-03-24T06:05:36.590Z,11.80
2019-03-24T06:08:04.819Z,10.30
2019-03-24T06:10:33.063Z,10.67
2019-03-24T06:13:01.289Z,12.83
2019-03-24T06:15:29.527Z,9.77
2019-03-24T06:17:57.774Z,11.73
2019-03-24T06:20:26.008Z,13.73
2019-03-24T06:22:54.246Z,11.90
2019-03-24T06:25:22.497Z,13.35
2019-03-24T06:27:50.740Z,10.25
2019-03-24T06:30:18.976Z,13.05
2019-03-24T06:32:47.267Z,10.90
2019-03-24T06:35:15.490Z,11.97
2019-03-24T06:37:44.608Z,9.93
2019-03-24T06:40:12.862Z,12.90
2019-03-24T06:42:41.103Z,11.17
2019-03-24T06:45:09.601Z,14.33
2019-03-24T06:47:37.845Z,9.13
2019-03-24T06:50:07.012Z,10.85
2019-03-24T06:52:35.405Z,11.50
2019-03-24T06:55:03.652Z,11.47
2019-03-24T06:57:31.897Z,11.93
2019-03-24T07:00:00.254Z,12.47
2019-03-24T07:02:28.760Z,10.30
2019-03-24T07:04:58.621Z,10.53
2019-03-24T07:07:26.860Z,14.23
2019-03-24T07:09:55.109Z,12.33
2019-03-24T07:12:23.337Z,10.87
2019-03-24T07:14:51.570Z,14.93
2019-03-24T07:17:19.936Z,12.33
2019-03-24T07:19:48.169Z,9.13
2019-03-24T07:22:16.402Z,10.90
2019-03-24T07:24:44.663Z,13.83
2019-03-24T07:27:12.894Z,13.55
2019-03-24T07:29:41.272Z,13.93
2019-03-24T07:32:09.653Z,14.73
2019-03-24T07:34:37.915Z,12.87
2019-03-24T07:37:06.831Z,14.18
2019-03-24T07:39:35.081Z,11.23
2019-03-24T07:42:05.489Z,12.87
2019-03-24T07:44:33.272Z,10.37
2019-03-24T07:47:04.776Z,13.27
2019-03-24T07:49:33.030Z,15.27
2019-03-24T07:52:01.333Z,9.77
2019-03-24T07:54:29.569Z,15.47
2019-03-24T07:56:57.799Z,14.67
2019-03-24T07:59:26.034Z,10.23
2019-03-24T08:01:54.285Z,14.70
2019-03-24T08:04:22.517Z,15.63
2019-03-24T08:06:50.745Z,10.43
2019-03-24T08:09:18.989Z,13.03
2019-03-24T08:11:47.226Z,11.10
2019-03-24T08:14:15.448Z,14.03
2019-03-24T08:16:43.733Z,10.50
2019-03-24T08:19:11.962Z,10.33
2019-03-24T08:21:40.228Z,13.93
2019-03-24T08:24:08.480Z,11.08
2019-03-24T08:26:36.719Z,16.47
2019-03-24T08:29:05.221Z,15.80
2019-03-24T08:31:33.472Z,9.83
2019-03-24T08:34:01.717Z,12.37
2019-03-24T08:36:29.945Z,8.83
2019-03-24T08:38:58.381Z,10.00
2019-03-24T08:41:26.627Z,10.80
2019-03-24T08:43:54.869Z,11.93
2019-03-24T08:46:23.431Z,10.77
2019-03-24T08:48:51.658Z,8.63
2019-03-24T08:51:20.004Z,11.03
2019-03-24T08:53:48.262Z,10.67
2019-03-24T08:56:16.789Z,11.53
2019-03-24T08:58:45.027Z,12.63
2019-03-24T09:01:15.074Z,12.13
2019-03-24T09:03:43.317Z,8.27
2019-03-24T09:06:13.278Z,10.70
2019-03-24T09:08:41.612Z,12.17
2019-03-24T09:11:09.848Z,8.03
2019-03-24T09:13:38.084Z,11.67
2019-03-24T09:16:06.368Z,11.23
2019-03-24T09:18:34.621Z,10.33
2019-03-24T09:21:02.905Z,11.50
2019-03-24T09:23:31.214Z,11.10
2019-03-24T09:25:59.463Z,13.50
2019-03-24T09:28:27.730Z,11.63
2019-03-24T09:30:55.981Z,10.57
2019-03-24T09:33:24.223Z,10.43
2019-03-24T09:35:52.477Z,9.70
2019-03-24T09:38:20.822Z,12.10
2019-03-24T09:40:49.094Z,7.27
2019-03-24T09:43:17.378Z,8.73
2019-03-24T09:45:45.810Z,10.93
2019-03-24T09:48:15.714Z,8.60
2019-03-24T09:50:43.950Z,13.40
2019-03-24T09:53:12.209Z,10.80
2019-03-24T09:55:40.437Z,10.00
2019-03-24T09:58:08.673Z,7.10
2019-03-24T10:00:36.985Z,8.60
2019-03-24T10:03:05.216Z,8.63
2019-03-24T10:05:33.458Z,14.13
2019-03-24T10:08:01.891Z,11.07
2019-03-24T10:10:30.129Z,7.43
2019-03-24T10:12:58.443Z,6.10
2019-03-24T10:15:26.690Z,8.63
2019-03-24T10:17:56.056Z,9.60
2019-03-24T10:20:24.289Z,9.80
2019-03-24T10:22:52.572Z,6.22
2019-03-24T10:25:20.787Z,9.80
2019-03-24T10:27:49.025Z,6.00
2019-03-24T10:30:17.356Z,8.25
2019-03-24T10:32:45.585Z,11.90
2019-03-24T10:35:13.826Z,10.05
2019-03-24T10:37:42.426Z,9.67
2019-03-24T10:40:10.661Z,6.83
2019-03-24T10:42:38.897Z,6.37
2019-03-24T10:45:07.909Z,9.48
2019-03-24T10:47:36.137Z,7.50
2019-03-24T10:50:08.762Z,7.80
2019-03-24T10:52:37.281Z,7.97
2019-03-24T10:55:08.130Z,6.42
2019-03-24T10:57:36.439Z,7.90
2019-03-24T11:00:09.160Z,7.43
2019-03-24T11:02:37.395Z,8.30
2019-03-24T11:05:06.369Z,11.03
2019-03-24T11:07:34.698Z,4.40
2019-03-24T11:10:03.466Z,8.23
2019-03-24T11:12:31.693Z,9.50
2019-03-24T11:15:00.428Z,8.77
2019-03-24T11:17:28.667Z,8.83
2019-03-24T11:19:56.980Z,9.27
2019-03-24T11:22:25.223Z,7.30
2019-03-24T11:24:53.494Z,4.10
2019-03-24T11:27:21.794Z,6.40
2019-03-24T11:29:50.056Z,10.38
2019-03-24T11:32:18.281Z,6.30
2019-03-24T11:34:46.581Z,12.13
2019-03-24T11:37:15.020Z,10.63
2019-03-24T11:39:44.684Z,7.20
2019-03-24T11:42:13.080Z,7.63
2019-03-24T11:44:41.320Z,9.23
2019-03-24T11:47:09.615Z,7.63
2019-03-24T11:49:45.696Z,6.17
2019-03-24T11:52:07.846Z,7.13
2019-03-24T11:54:36.095Z,8.30
2019-03-24T11:57:04.317Z,6.53
2019-03-24T11:59:32.834Z,7.70
2019-03-24T12:02:01.069Z,8.53
2019-03-24T12:04:29.309Z,13.57
2019-03-24T12:06:57.620Z,8.00
2019-03-24T12:09:25.938Z,8.40
2019-03-24T12:11:54.532Z,8.83
2019-03-24T12:14:22.786Z,9.80
2019-03-24T12:16:51.026Z,11.00
2019-03-24T12:19:20.570Z,8.33
2019-03-24T12:21:48.831Z,8.57
2019-03-24T12:24:17.153Z,8.33
2019-03-24T12:26:45.441Z,7.60
2019-03-24T12:29:15.819Z,7.45
2019-03-24T12:31:44.060Z,8.77
2019-03-24T12:34:12.293Z,8.20
2019-03-24T12:36:40.551Z,6.37
2019-03-24T12:39:08.864Z,7.20
2019-03-24T12:41:37.092Z,8.53
2019-03-24T12:44:05.353Z,7.27
2019-03-24T12:46:33.582Z,7.20
2019-03-24T12:49:01.898Z,6.60
2019-03-24T12:51:30.145Z,8.60
2019-03-24T12:53:58.467Z,5.83
2019-03-24T12:56:26.699Z,6.43
2019-03-24T12:58:54.990Z,7.45
2019-03-24T13:01:23.219Z,4.17
2019-03-24T13:03:51.451Z,8.17
2019-03-24T13:06:19.978Z,6.93
2019-03-24T13:08:48.297Z,6.00
2019-03-24T13:11:16.559Z,5.67
2019-03-24T13:13:46.209Z,7.87
2019-03-24T13:16:14.506Z,8.10
2019-03-24T13:18:44.374Z,9.07
2019-03-24T13:21:12.623Z,7.05
2019-03-24T13:23:42.482Z,7.87
2019-03-24T13:26:10.727Z,8.58
2019-03-24T13:28:38.974Z,10.23
2019-03-24T13:31:07.211Z,4.90
2019-03-24T13:33:35.522Z,5.33
2019-03-24T13:36:06.366Z,6.17
2019-03-24T13:38:34.770Z,9.03
2019-03-24T13:41:03.001Z,5.90
2019-03-24T13:43:31.268Z,8.27
2019-03-24T13:45:59.619Z,5.80
2019-03-24T13:48:27.906Z,4.93
2019-03-24T13:50:56.181Z,3.97
2019-03-24T13:53:24.422Z,6.90
2019-03-24T13:55:52.723Z,6.43
2019-03-24T13:58:22.138Z,5.40
2019-03-24T14:00:50.433Z,6.30
2019-03-24T14:03:18.677Z,4.97
2019-03-24T14:05:46.925Z,6.33
2019-03-24T14:08:15.174Z,2.80
2019-03-24T14:10:43.407Z,5.20
2019-03-24T14:13:12.445Z,4.17
2019-03-24T14:15:41.067Z,7.37
2019-03-24T14:18:09.311Z,5.13
2019-03-24T14:20:43.352Z,3.93
2019-03-24T14:23:07.542Z,6.90
2019-03-24T14:25:36.933Z,5.73
2019-03-24T14:28:05.265Z,7.70
2019-03-24T14:30:41.716Z,5.53
2019-03-24T14:33:09.954Z,6.73
2019-03-24T14:35:38.187Z,6.43
2019-03-24T14:38:06.786Z,10.37
2019-03-24T14:40:35.026Z,4.50
2019-03-24T14:43:03.261Z,5.27
2019-03-24T14:45:31.501Z,4.73
2019-03-24T14:47:59.738Z,4.00
2019-03-24T14:50:28.051Z,5.43
2019-03-24T14:52:56.355Z,3.67
2019-03-24T14:55:24.594Z,5.67
2019-03-24T14:57:52.822Z,3.97
2019-03-24T15:00:30.108Z,4.33
2019-03-24T15:02:58.370Z,4.63
2019-03-24T15:05:26.597Z,4.70
2019-03-24T15:07:54.840Z,5.53
2019-03-24T15:10:23.074Z,6.53
2019-03-24T15:12:51.313Z,5.43
2019-03-24T15:15:19.552Z,6.07
2019-03-24T15:17:48.033Z,5.07
2019-03-24T15:20:16.287Z,7.53
2019-03-24T15:22:44.601Z,5.73
2019-03-24T15:25:12.870Z,6.13
2019-03-24T15:27:41.119Z,5.87
2019-03-24T15:30:09.359Z,6.07
2019-03-24T15:32:37.665Z,5.50
2019-03-24T15:35:07.048Z,7.50
2019-03-24T15:37:35.282Z,7.57
2019-03-24T15:40:04.253Z,7.90
2019-03-24T15:42:32.514Z,8.33
2019-03-24T15:45:00.745Z,6.03
2019-03-24T15:47:28.997Z,4.30
2019-03-24T15:49:57.243Z,6.83
2019-03-24T15:52:25.476Z,6.00
2019-03-24T15:54:53.730Z,3.93
2019-03-24T15:57:21.974Z,6.00
2019-03-24T15:59:50.447Z,6.17
2019-03-24T16:02:18.928Z,4.87
2019-03-24T16:04:47.167Z,6.60
2019-03-24T16:07:15.466Z,7.90
2019-03-24T16:09:43.731Z,5.60
2019-03-24T16:12:11.970Z,4.63
2019-03-24T16:14:40.201Z,6.70
2019-03-24T16:17:08.453Z,6.57
2019-03-24T16:19:36.961Z,7.63
2019-03-24T16:22:05.262Z,6.00
2019-03-24T16:24:34.598Z,5.37
2019-03-24T16:27:02.834Z,6.05
2019-03-24T16:29:31.067Z,7.53
2019-03-24T16:31:59.409Z,4.67
2019-03-24T16:34:27.640Z,4.57
2019-03-24T16:36:55.870Z,6.20
2019-03-24T16:39:24.155Z,5.47
2019-03-24T16:41:52.438Z,4.93
2019-03-24T16:44:20.674Z,3.93
2019-03-24T16:46:49.005Z,4.40
2019-03-24T16:49:17.408Z,6.62
2019-03-24T16:51:45.663Z,5.13
2019-03-24T16:54:13.913Z,4.00
2019-03-24T16:56:42.174Z,3.77
2019-03-24T16:59:10.393Z,2.67
2019-03-24T17:01:38.664Z,5.97
2019-03-24T17:04:06.901Z,5.60
2019-03-24T17:06:35.140Z,5.03
2019-03-24T17:09:04.134Z,2.87
2019-03-24T17:11:32.552Z,4.93
2019-03-24T17:14:00.786Z,4.50
2019-03-24T17:16:29.031Z,5.03
2019-03-24T17:18:57.261Z,6.67
2019-03-24T17:21:25.773Z,7.42
2019-03-24T17:23:54.047Z,6.33
2019-03-24T17:26:22.289Z,3.62
2019-03-24T17:28:50.527Z,3.87
2019-03-24T17:31:18.857Z,5.35
2019-03-24T17:33:47.269Z,4.47
2019-03-24T17:36:15.505Z,4.93
2019-03-24T17:38:43.749Z,3.93
2019-03-24T17:41:11.986Z,4.15
2019-03-24T17:43:40.283Z,6.07
2019-03-24T17:46:08.566Z,9.30
2019-03-24T17:48:36.789Z,7.40
2019-03-24T17:51:05.038Z,8.97
2019-03-24T17:53:33.285Z,12.60
2019-03-24T17:56:01.535Z,6.30
2019-03-24T17:58:29.777Z,6.27
2019-03-24T18:00:58.074Z,5.50
2019-03-24T18:03:26.310Z,8.07
2019-03-24T18:05:56.250Z,5.87
2019-03-24T18:08:24.860Z,6.63
2019-03-24T18:10:53.089Z,6.33
2019-03-24T18:13:21.320Z,7.70
2019-03-24T18:15:49.580Z,6.63
2019-03-24T18:18:17.895Z,6.37
2019-03-24T18:20:46.271Z,7.27
2019-03-24T18:23:14.905Z,5.37
2019-03-24T18:25:43.205Z,7.90
2019-03-24T18:28:11.443Z,5.83
2019-03-24T18:30:39.879Z,5.40
2019-03-24T18:33:08.189Z,3.22
2019-03-24T18:35:36.420Z,4.03
2019-03-24T18:38:04.724Z,4.83
2019-03-24T18:40:32.957Z,5.60
2019-03-24T18:43:01.184Z,5.90
2019-03-24T18:45:29.455Z,4.00
2019-03-24T18:47:57.762Z,7.13
2019-03-24T18:50:25.994Z,5.23
2019-03-24T18:52:54.278Z,4.20
2019-03-24T18:55:22.522Z,2.47
2019-03-24T18:57:50.829Z,4.67
2019-03-24T19:00:19.093Z,5.17
2019-03-24T19:02:47.339Z,4.43
2019-03-24T19:05:15.631Z,4.95
2019-03-24T19:07:43.890Z,3.37
2019-03-24T19:10:12.264Z,3.30
2019-03-24T19:12:40.507Z,4.17
2019-03-24T19:15:10.910Z,4.17
2019-03-24T19:17:39.140Z,5.27
2019-03-24T19:20:08.558Z,5.17
2019-03-24T19:22:36.798Z,5.07
2019-03-24T19:25:08.614Z,4.07
2019-03-24T19:27:36.851Z,2.70
2019-03-24T19:30:16.259Z,4.73
2019-03-24T19:32:44.501Z,3.67
2019-03-24T19:35:12.764Z,4.57
2019-03-24T19:37:42.813Z,5.70
2019-03-24T19:40:23.012Z,5.97
2019-03-24T19:42:51.265Z,3.00
2019-03-24T19:45:19.503Z,3.53
2019-03-24T19:47:47.738Z,4.30
2019-03-24T19:50:15.986Z,6.17
2019-03-24T19:52:45.048Z,4.07
2019-03-24T19:55:13.454Z,3.70
2019-03-24T19:57:41.709Z,3.27
2019-03-24T20:00:09.941Z,3.97
2019-03-24T20:02:38.184Z,6.47
2019-03-24T20:05:06.869Z,4.40
2019-03-24T20:07:35.106Z,4.55
2019-03-24T20:10:04.681Z,6.43
2019-03-24T20:12:32.954Z,3.77
2019-03-24T20:15:01.192Z,6.93
2019-03-24T20:17:29.433Z,5.43
2019-03-24T20:19:59.388Z,7.10
2019-03-24T20:22:27.617Z,6.70
2019-03-24T20:24:55.846Z,3.90
2019-03-24T20:27:25.992Z,5.97
2019-03-24T20:29:55.579Z,6.13
2019-03-24T20:32:26.586Z,4.97
2019-03-24T20:34:55.171Z,7.33
2019-03-24T20:37:23.484Z,6.63
2019-03-24T20:39:51.744Z,6.40
2019-03-24T20:42:19.990Z,4.25
2019-03-24T20:44:48.226Z,6.67
2019-03-24T20:47:16.460Z,4.55
2019-03-24T20:49:44.741Z,5.10
2019-03-24T20:52:12.980Z,7.67
2019-03-24T20:54:41.231Z,4.27
2019-03-24T20:57:09.543Z,6.97
2019-03-24T20:59:37.782Z,3.23
2019-03-24T21:02:06.613Z,4.07
2019-03-24T21:04:34.889Z,5.60
2019-03-24T21:07:03.134Z,5.53
2019-03-24T21:09:31.389Z,3.70
2019-03-24T21:11:59.641Z,5.00
2019-03-24T21:14:27.874Z,5.67
2019-03-24T21:16:56.119Z,7.87
2019-03-24T21:19:24.380Z,4.17
2019-03-24T21:21:52.613Z,2.53
2019-03-24T21:24:20.836Z,4.57
2019-03-24T21:26:49.085Z,4.00
2019-03-24T21:29:17.504Z,4.40
2019-03-24T21:31:45.784Z,3.70
2019-03-24T21:34:14.338Z,4.83
2019-03-24T21:36:43.177Z,5.00
2019-03-24T21:39:11.546Z,4.80
2019-03-24T21:41:39.774Z,3.93
2019-03-24T21:44:07.998Z,4.43
2019-03-24T21:46:36.236Z,4.60
2019-03-24T21:49:04.585Z,4.07
2019-03-24T21:51:32.798Z,3.73
2019-03-24T21:54:01.026Z,8.47
2019-03-24T21:56:29.286Z,3.20
2019-03-24T21:58:57.637Z,3.67
2019-03-24T22:01:25.870Z,8.33
2019-03-24T22:03:54.117Z,5.83
2019-03-24T22:06:23.538Z,3.95
2019-03-24T22:08:51.775Z,6.23
2019-03-24T22:11:20.097Z,4.50
2019-03-24T22:13:48.329Z,6.45
2019-03-24T22:16:16.577Z,5.97
2019-03-24T22:18:46.530Z,6.20
2019-03-24T22:21:16.386Z,5.50
2019-03-24T22:23:52.136Z,9.50
2019-03-24T22:26:14.661Z,7.17
2019-03-24T22:28:42.899Z,3.33
2019-03-24T22:31:11.738Z,7.63
2019-03-24T22:33:39.998Z,6.07
2019-03-24T22:36:08.294Z,9.23
2019-03-24T22:38:36.533Z,7.90
2019-03-24T22:41:04.777Z,5.17
2019-03-24T22:43:33.015Z,7.83
2019-03-24T22:46:01.263Z,5.83
2019-03-24T22:48:29.525Z,6.70
2019-03-24T22:50:57.755Z,6.80
2019-03-24T22:53:25.986Z,7.07
2019-03-24T22:55:55.626Z,5.27
2019-03-24T22:58:23.921Z,5.33
2019-03-24T23:00:53.941Z,4.13
2019-03-24T23:03:24.914Z,6.73
2019-03-24T23:05:52.494Z,6.03
2019-03-24T23:08:20.730Z,6.00
2019-03-24T23:10:48.975Z,6.17
2019-03-24T23:13:17.225Z,3.13
2019-03-24T23:15:45.473Z,5.22
2019-03-24T23:18:13.713Z,7.17
2019-03-24T23:20:41.946Z,5.80
2019-03-24T23:23:10.170Z,7.60
2019-03-24T23:25:38.422Z,5.87
2019-03-24T23:28:06.640Z,7.67
2019-03-24T23:30:34.951Z,6.33
2019-03-24T23:33:03.527Z,5.00
2019-03-24T23:35:31.757Z,6.33
2019-03-24T23:38:00.024Z,12.17
2019-03-24T23:40:28.255Z,8.13
2019-03-24T23:42:56.519Z,8.60
2019-03-24T23:45:26.382Z,5.80
2019-03-24T23:47:54.900Z,11.83
2019-03-24T23:50:23.143Z,5.75
2019-03-24T23:52:51.380Z,10.23
2019-03-24T23:55:19.657Z,6.78
2019-03-24T23:57:47.896Z,4.47
